UAL1010 KMIA-MTPP
Flight info
| Callsign | UAL1010 |
|---|---|
| Flight time | 1h 27m |
| Altitude | 41000 |
| Route | KLADA2 JAGOR Y398 JOSES UA315 SAVAR SAVAR1C |
| Aircraft | A359/H-SDE2E3GHIJ3J4J5LM1ORWXY/LB1D1 |
Departure
| Time | 2026-04-17 04:10 |
|---|---|
| Airport | Miami International Airport (KMIA) |
Arrival
| Time | 2026-04-17 05:37 |
|---|---|
| Airport | Toussaint Louverture International Airport (MTPP) |
| Time | Latitude | Longitude | Altitude | Speed | Heading |
|---|---|---|---|---|---|
| 2026-04-17 03:36 | 25.79782 | -80.27825 | 22 ft | 0 kts | 177° |
| 2026-04-17 03:52 | 25.79797 | -80.27825 | 22 ft | 0 kts | 177° |
| 2026-04-17 03:53 | 25.79782 | -80.27825 | 22 ft | 0 kts | 177° |
| 2026-04-17 04:00 | 25.79784 | -80.27825 | 22 ft | 4 kts | 177° |
| 2026-04-17 04:00 | 25.79811 | -80.27827 | 23 ft | 4 kts | 177° |
| 2026-04-17 04:00 | 25.79838 | -80.27828 | 23 ft | 4 kts | 177° |
| 2026-04-17 04:01 | 25.79864 | -80.27830 | 25 ft | 4 kts | 178° |
| 2026-04-17 04:01 | 25.79883 | -80.27824 | 22 ft | 4 kts | 253° |
| 2026-04-17 04:01 | 25.79886 | -80.27802 | 21 ft | 4 kts | 267° |
| 2026-04-17 04:01 | 25.79887 | -80.27776 | 21 ft | 2 kts | 267° |
| 2026-04-17 04:02 | 25.79886 | -80.27778 | 21 ft | 0 kts | 267° |
| 2026-04-17 04:02 | 25.79886 | -80.27781 | 21 ft | 0 kts | 266° |
| 2026-04-17 04:02 | 25.79886 | -80.27787 | 21 ft | 1 kts | 266° |
| 2026-04-17 04:02 | 25.79887 | -80.27803 | 21 ft | 3 kts | 281° |
| 2026-04-17 04:03 | 25.79907 | -80.27842 | 22 ft | 12 kts | 301° |
| 2026-04-17 04:03 | 25.79960 | -80.27956 | 19 ft | 19 kts | 281° |
| 2026-04-17 04:03 | 25.79963 | -80.28103 | 21 ft | 19 kts | 267° |
| 2026-04-17 04:03 | 25.79956 | -80.28256 | 21 ft | 21 kts | 267° |
| 2026-04-17 04:04 | 25.79949 | -80.28423 | 22 ft | 23 kts | 267° |
| 2026-04-17 04:04 | 25.79962 | -80.28594 | 28 ft | 22 kts | 297° |
| 2026-04-17 04:04 | 25.80018 | -80.28745 | 29 ft | 21 kts | 275° |
| 2026-04-17 04:04 | 25.80010 | -80.28918 | 27 ft | 24 kts | 266° |
| 2026-04-17 04:05 | 25.80002 | -80.29110 | 27 ft | 26 kts | 268° |
| 2026-04-17 04:05 | 25.79994 | -80.29316 | 27 ft | 28 kts | 266° |
| 2026-04-17 04:05 | 25.79985 | -80.29549 | 20 ft | 31 kts | 268° |
| 2026-04-17 04:05 | 25.79975 | -80.29772 | 23 ft | 26 kts | 266° |
| 2026-04-17 04:06 | 25.79972 | -80.29925 | 18 ft | 8 kts | 276° |
| 2026-04-17 04:06 | 25.79973 | -80.29933 | 19 ft | 0 kts | 276° |
| 2026-04-17 04:06 | 25.79974 | -80.29939 | 20 ft | 5 kts | 278° |
| 2026-04-17 04:07 | 25.79986 | -80.29994 | 18 ft | 11 kts | 286° |
| 2026-04-17 04:07 | 25.80026 | -80.30086 | 22 ft | 8 kts | 334° |
| 2026-04-17 04:07 | 25.80060 | -80.30059 | 23 ft | 11 kts | 54° |
| 2026-04-17 04:07 | 25.80075 | -80.29995 | 21 ft | 0 kts | 86° |
| 2026-04-17 04:09 | 25.80084 | -80.29791 | 20 ft | 65 kts | 87° |
| 2026-04-17 04:09 | 25.80117 | -80.28997 | 27 ft | 139 kts | 87° |
| 2026-04-17 04:09 | 25.80160 | -80.27757 | 398 ft | 166 kts | 89° |
| 2026-04-17 04:10 | 25.80164 | -80.26520 | 1390 ft | 160 kts | 89° |
| 2026-04-17 04:10 | 25.80052 | -80.25188 | 1920 ft | 187 kts | 98° |
| 2026-04-17 04:10 | 25.79643 | -80.23725 | 2430 ft | 209 kts | 112° |
| 2026-04-17 04:10 | 25.78926 | -80.22259 | 3053 ft | 225 kts | 118° |
| 2026-04-17 04:11 | 25.78097 | -80.20684 | 3573 ft | 246 kts | 120° |
| 2026-04-17 04:11 | 25.77199 | -80.18996 | 4235 ft | 259 kts | 119° |
| 2026-04-17 04:11 | 25.76381 | -80.17229 | 5121 ft | 263 kts | 118° |
| 2026-04-17 04:11 | 25.75519 | -80.15433 | 6054 ft | 263 kts | 118° |
| 2026-04-17 04:12 | 25.74631 | -80.13633 | 6861 ft | 271 kts | 118° |
| 2026-04-17 04:12 | 25.73715 | -80.11764 | 7582 ft | 279 kts | 116° |
| 2026-04-17 04:12 | 25.72939 | -80.09785 | 8463 ft | 282 kts | 110° |
| 2026-04-17 04:12 | 25.72250 | -80.07726 | 9338 ft | 287 kts | 109° |
| 2026-04-17 04:13 | 25.71561 | -80.05627 | 10200 ft | 292 kts | 107° |
| 2026-04-17 04:13 | 25.70845 | -80.03441 | 10643 ft | 312 kts | 108° |
| 2026-04-17 04:13 | 25.70078 | -80.01109 | 11025 ft | 332 kts | 107° |
| 2026-04-17 04:13 | 25.69273 | -79.98667 | 11612 ft | 341 kts | 108° |
| 2026-04-17 04:14 | 25.68455 | -79.96207 | 12324 ft | 348 kts | 108° |
| 2026-04-17 04:14 | 25.67614 | -79.93674 | 13051 ft | 353 kts | 108° |
| 2026-04-17 04:14 | 25.66760 | -79.91105 | 13793 ft | 358 kts | 108° |
| 2026-04-17 04:14 | 25.65894 | -79.88502 | 14451 ft | 362 kts | 108° |
| 2026-04-17 04:15 | 25.65017 | -79.85866 | 15124 ft | 366 kts | 108° |
| 2026-04-17 04:15 | 25.64132 | -79.83208 | 15799 ft | 370 kts | 108° |
| 2026-04-17 04:15 | 25.63238 | -79.80523 | 16479 ft | 373 kts | 109° |
| 2026-04-17 04:15 | 25.62335 | -79.77818 | 17186 ft | 376 kts | 108° |
| 2026-04-17 04:16 | 25.61425 | -79.75090 | 17873 ft | 379 kts | 109° |
| 2026-04-17 04:16 | 25.60517 | -79.72370 | 18486 ft | 384 kts | 109° |
| 2026-04-17 04:16 | 25.59524 | -79.69605 | 19077 ft | 389 kts | 113° |
| 2026-04-17 04:16 | 25.58360 | -79.66878 | 19633 ft | 394 kts | 115° |
| 2026-04-17 04:17 | 25.57148 | -79.64148 | 20276 ft | 397 kts | 115° |
| 2026-04-17 04:17 | 25.55922 | -79.61393 | 20886 ft | 401 kts | 114° |
| 2026-04-17 04:17 | 25.54678 | -79.58594 | 21375 ft | 408 kts | 115° |
| 2026-04-17 04:17 | 25.53423 | -79.55769 | 21984 ft | 412 kts | 114° |
| 2026-04-17 04:18 | 25.52160 | -79.52927 | 22437 ft | 419 kts | 114° |
| 2026-04-17 04:18 | 25.50873 | -79.50028 | 23096 ft | 421 kts | 115° |
| 2026-04-17 04:18 | 25.49575 | -79.47110 | 23695 ft | 425 kts | 114° |
| 2026-04-17 04:18 | 25.48264 | -79.44162 | 24204 ft | 429 kts | 115° |
| 2026-04-17 04:19 | 25.46937 | -79.41184 | 24703 ft | 433 kts | 115° |
| 2026-04-17 04:19 | 25.45601 | -79.38184 | 25252 ft | 436 kts | 114° |
| 2026-04-17 04:19 | 25.44252 | -79.35157 | 25761 ft | 441 kts | 114° |
| 2026-04-17 04:19 | 25.42888 | -79.32099 | 26249 ft | 446 kts | 114° |
| 2026-04-17 04:20 | 25.41508 | -79.29006 | 26724 ft | 451 kts | 114° |
| 2026-04-17 04:20 | 25.40112 | -79.25880 | 27222 ft | 455 kts | 114° |
| 2026-04-17 04:20 | 25.38723 | -79.22773 | 27680 ft | 460 kts | 114° |
| 2026-04-17 04:20 | 25.37298 | -79.19586 | 28169 ft | 464 kts | 114° |
| 2026-04-17 04:21 | 25.35858 | -79.16370 | 28638 ft | 469 kts | 114° |
| 2026-04-17 04:21 | 25.34404 | -79.13123 | 29094 ft | 473 kts | 114° |
| 2026-04-17 04:21 | 25.32938 | -79.09852 | 29547 ft | 478 kts | 114° |
| 2026-04-17 04:21 | 25.31456 | -79.06549 | 30002 ft | 482 kts | 114° |
| 2026-04-17 04:22 | 25.29959 | -79.03214 | 30451 ft | 485 kts | 114° |
| 2026-04-17 04:22 | 25.28453 | -78.99863 | 30877 ft | 488 kts | 114° |
| 2026-04-17 04:22 | 25.26959 | -78.96541 | 31275 ft | 491 kts | 114° |
| 2026-04-17 04:22 | 25.25438 | -78.93159 | 31695 ft | 494 kts | 114° |
| 2026-04-17 04:23 | 25.23904 | -78.89753 | 32092 ft | 496 kts | 114° |
| 2026-04-17 04:23 | 25.22361 | -78.86329 | 32477 ft | 499 kts | 115° |
| 2026-04-17 04:23 | 25.20808 | -78.82886 | 32869 ft | 502 kts | 115° |
| 2026-04-17 04:23 | 25.19251 | -78.79435 | 33254 ft | 504 kts | 115° |
| 2026-04-17 04:24 | 25.17681 | -78.75960 | 33608 ft | 507 kts | 115° |
| 2026-04-17 04:24 | 25.16102 | -78.72465 | 33958 ft | 510 kts | 115° |
| 2026-04-17 04:24 | 25.14513 | -78.68954 | 34278 ft | 513 kts | 115° |
| 2026-04-17 04:24 | 25.12940 | -78.65480 | 34558 ft | 515 kts | 115° |
| 2026-04-17 04:25 | 25.11336 | -78.61939 | 34890 ft | 516 kts | 115° |
| 2026-04-17 04:25 | 25.09730 | -78.58405 | 35304 ft | 515 kts | 115° |
| 2026-04-17 04:25 | 25.08044 | -78.54922 | 35694 ft | 514 kts | 117° |
| 2026-04-17 04:25 | 25.06320 | -78.51473 | 36072 ft | 514 kts | 116° |
| 2026-04-17 04:26 | 25.04597 | -78.48019 | 36434 ft | 514 kts | 116° |
| 2026-04-17 04:26 | 25.02880 | -78.44564 | 36786 ft | 513 kts | 116° |
| 2026-04-17 04:26 | 25.01168 | -78.41109 | 37137 ft | 513 kts | 116° |
| 2026-04-17 04:26 | 24.99482 | -78.37703 | 37487 ft | 512 kts | 116° |
| 2026-04-17 04:27 | 24.97780 | -78.34263 | 37811 ft | 512 kts | 115° |
| 2026-04-17 04:27 | 24.96075 | -78.30818 | 38161 ft | 511 kts | 115° |
| 2026-04-17 04:27 | 24.94371 | -78.27378 | 38496 ft | 511 kts | 115° |
| 2026-04-17 04:27 | 24.92669 | -78.23942 | 38814 ft | 510 kts | 115° |
| 2026-04-17 04:28 | 24.90967 | -78.20510 | 39069 ft | 510 kts | 115° |
| 2026-04-17 04:28 | 24.89268 | -78.17085 | 39307 ft | 510 kts | 115° |
| 2026-04-17 04:28 | 24.87566 | -78.13657 | 39543 ft | 510 kts | 115° |
| 2026-04-17 04:28 | 24.85864 | -78.10232 | 39782 ft | 510 kts | 115° |
| 2026-04-17 04:29 | 24.84185 | -78.06854 | 40008 ft | 509 kts | 115° |
| 2026-04-17 04:29 | 24.82489 | -78.03445 | 40268 ft | 508 kts | 115° |
| 2026-04-17 04:29 | 24.80791 | -78.00034 | 40489 ft | 508 kts | 115° |
| 2026-04-17 04:29 | 24.79092 | -77.96624 | 40707 ft | 508 kts | 115° |
| 2026-04-17 04:30 | 24.77393 | -77.93217 | 40912 ft | 507 kts | 115° |
| 2026-04-17 04:30 | 24.75697 | -77.89818 | 41082 ft | 508 kts | 115° |
| 2026-04-17 04:30 | 24.73989 | -77.86395 | 41106 ft | 512 kts | 115° |
| 2026-04-17 04:31 | 24.70528 | -77.79469 | 41131 ft | 520 kts | 115° |
| 2026-04-17 04:31 | 24.66751 | -77.72755 | 41128 ft | 524 kts | 127° |
| 2026-04-17 04:32 | 24.61832 | -77.66822 | 41122 ft | 526 kts | 131° |
| 2026-04-17 04:32 | 24.56714 | -77.61081 | 41097 ft | 526 kts | 132° |
| 2026-04-17 04:33 | 24.51587 | -77.55343 | 41101 ft | 526 kts | 131° |
| 2026-04-17 04:33 | 24.46522 | -77.49624 | 41091 ft | 525 kts | 131° |
| 2026-04-17 04:34 | 24.38900 | -77.40987 | 41095 ft | 525 kts | 131° |
| 2026-04-17 04:34 | 24.33814 | -77.35230 | 41092 ft | 525 kts | 131° |
| 2026-04-17 04:35 | 24.28757 | -77.29517 | 41092 ft | 525 kts | 131° |
| 2026-04-17 04:35 | 24.23670 | -77.23777 | 41091 ft | 525 kts | 131° |
| 2026-04-17 04:36 | 24.18576 | -77.18037 | 41090 ft | 525 kts | 131° |
| 2026-04-17 04:36 | 24.13490 | -77.12312 | 41086 ft | 525 kts | 131° |
| 2026-04-17 04:37 | 24.08397 | -77.06586 | 41084 ft | 525 kts | 131° |
| 2026-04-17 04:37 | 24.03302 | -77.00865 | 41082 ft | 525 kts | 131° |
| 2026-04-17 04:38 | 23.98245 | -76.95193 | 41084 ft | 525 kts | 131° |
| 2026-04-17 04:38 | 23.93146 | -76.89481 | 41084 ft | 525 kts | 131° |
| 2026-04-17 04:39 | 23.88051 | -76.83781 | 41078 ft | 524 kts | 131° |
| 2026-04-17 04:39 | 23.82953 | -76.78085 | 41079 ft | 524 kts | 131° |
| 2026-04-17 04:40 | 23.77890 | -76.72435 | 41077 ft | 524 kts | 131° |
| 2026-04-17 04:40 | 23.72797 | -76.66756 | 41079 ft | 523 kts | 131° |
| 2026-04-17 04:41 | 23.67698 | -76.61079 | 41076 ft | 523 kts | 131° |
| 2026-04-17 04:41 | 23.62603 | -76.55412 | 41076 ft | 524 kts | 131° |
| 2026-04-17 04:42 | 23.57534 | -76.49781 | 41081 ft | 524 kts | 131° |
| 2026-04-17 04:42 | 23.52439 | -76.44128 | 41069 ft | 523 kts | 131° |
| 2026-04-17 04:43 | 23.47341 | -76.38478 | 41069 ft | 522 kts | 131° |
| 2026-04-17 04:43 | 23.42248 | -76.32840 | 41067 ft | 522 kts | 131° |
| 2026-04-17 04:44 | 23.37185 | -76.27242 | 41069 ft | 522 kts | 131° |
| 2026-04-17 04:44 | 23.32091 | -76.21616 | 41071 ft | 522 kts | 131° |
| 2026-04-17 04:45 | 23.26990 | -76.15989 | 41065 ft | 522 kts | 131° |
| 2026-04-17 04:45 | 23.21892 | -76.10373 | 41064 ft | 522 kts | 131° |
| 2026-04-17 04:46 | 23.16826 | -76.04798 | 41061 ft | 521 kts | 131° |
| 2026-04-17 04:46 | 23.11730 | -75.99195 | 41050 ft | 521 kts | 131° |
| 2026-04-17 04:47 | 23.06629 | -75.93594 | 41060 ft | 521 kts | 131° |
| 2026-04-17 04:47 | 23.01528 | -75.87999 | 41058 ft | 521 kts | 131° |
| 2026-04-17 04:48 | 22.96461 | -75.82448 | 41050 ft | 521 kts | 131° |
| 2026-04-17 04:48 | 22.91363 | -75.76869 | 41056 ft | 521 kts | 131° |
| 2026-04-17 04:49 | 22.86260 | -75.71293 | 41050 ft | 520 kts | 131° |
| 2026-04-17 04:49 | 22.81163 | -75.65726 | 41047 ft | 520 kts | 131° |
| 2026-04-17 04:50 | 22.76058 | -75.60160 | 41047 ft | 520 kts | 131° |
| 2026-04-17 04:50 | 22.70986 | -75.54634 | 41050 ft | 520 kts | 131° |
| 2026-04-17 04:51 | 22.68194 | -75.52134 | 41057 ft | 527 kts | 146° |
| 2026-04-17 04:51 | 22.64873 | -75.50443 | 41045 ft | 530 kts | 161° |
| 2026-04-17 04:51 | 22.61256 | -75.49683 | 41038 ft | 531 kts | 177° |
| 2026-04-17 04:51 | 22.57563 | -75.49769 | 41045 ft | 531 kts | 185° |
| 2026-04-17 04:52 | 22.50224 | -75.50370 | 41040 ft | 533 kts | 185° |
| 2026-04-17 04:52 | 22.42818 | -75.50455 | 41037 ft | 533 kts | 172° |
| 2026-04-17 04:53 | 22.39193 | -75.49639 | 41032 ft | 532 kts | 161° |
| 2026-04-17 04:53 | 22.35781 | -75.48145 | 41033 ft | 528 kts | 149° |
| 2026-04-17 04:53 | 22.32715 | -75.46020 | 41038 ft | 523 kts | 138° |
| 2026-04-17 04:55 | 22.13279 | -75.28392 | 41026 ft | 522 kts | 136° |
| 2026-04-17 04:55 | 22.07712 | -75.23349 | 41025 ft | 522 kts | 136° |
| 2026-04-17 04:56 | 22.02145 | -75.18313 | 41020 ft | 522 kts | 136° |
| 2026-04-17 04:56 | 21.96613 | -75.13314 | 41020 ft | 522 kts | 136° |
| 2026-04-17 04:57 | 21.91048 | -75.08291 | 41020 ft | 522 kts | 136° |
| 2026-04-17 04:57 | 21.85476 | -75.03267 | 41027 ft | 522 kts | 136° |
| 2026-04-17 04:58 | 21.79911 | -74.98254 | 41018 ft | 522 kts | 136° |
| 2026-04-17 04:58 | 21.74340 | -74.93241 | 41023 ft | 522 kts | 136° |
| 2026-04-17 04:59 | 21.68811 | -74.88271 | 41019 ft | 522 kts | 136° |
| 2026-04-17 04:59 | 21.63239 | -74.83268 | 41022 ft | 522 kts | 136° |
| 2026-04-17 05:00 | 21.57667 | -74.78269 | 41018 ft | 522 kts | 136° |
| 2026-04-17 05:00 | 21.52092 | -74.73274 | 41019 ft | 522 kts | 136° |
| 2026-04-17 05:01 | 21.46559 | -74.68321 | 41013 ft | 522 kts | 136° |
| 2026-04-17 05:01 | 21.40982 | -74.63334 | 41013 ft | 522 kts | 136° |
| 2026-04-17 05:02 | 21.35405 | -74.58352 | 41010 ft | 521 kts | 136° |
| 2026-04-17 05:02 | 21.29828 | -74.53375 | 41007 ft | 521 kts | 136° |
| 2026-04-17 05:03 | 21.24292 | -74.48440 | 41003 ft | 521 kts | 136° |
| 2026-04-17 05:03 | 21.18712 | -74.43471 | 41005 ft | 521 kts | 136° |
| 2026-04-17 05:04 | 21.13137 | -74.38511 | 41003 ft | 521 kts | 136° |
| 2026-04-17 05:04 | 21.07555 | -74.33549 | 41008 ft | 521 kts | 136° |
| 2026-04-17 05:05 | 21.02012 | -74.28628 | 41006 ft | 521 kts | 136° |
| 2026-04-17 05:05 | 20.96433 | -74.23679 | 41006 ft | 521 kts | 136° |
| 2026-04-17 05:06 | 20.90860 | -74.18741 | 41007 ft | 521 kts | 136° |
| 2026-04-17 05:06 | 20.85281 | -74.13802 | 41008 ft | 521 kts | 136° |
| 2026-04-17 05:07 | 20.79699 | -74.08865 | 41007 ft | 521 kts | 136° |
| 2026-04-17 05:07 | 20.74157 | -74.03969 | 41001 ft | 521 kts | 136° |
| 2026-04-17 05:08 | 20.68565 | -73.99034 | 41010 ft | 521 kts | 136° |
| 2026-04-17 05:08 | 20.62992 | -73.94120 | 41001 ft | 520 kts | 136° |
| 2026-04-17 05:09 | 20.57417 | -73.89209 | 40998 ft | 519 kts | 136° |
| 2026-04-17 05:09 | 20.51883 | -73.84339 | 40998 ft | 519 kts | 136° |
| 2026-04-17 05:10 | 20.46307 | -73.79436 | 40999 ft | 519 kts | 136° |
| 2026-04-17 05:10 | 20.40734 | -73.74542 | 40999 ft | 519 kts | 136° |
| 2026-04-17 05:11 | 20.35154 | -73.69646 | 40993 ft | 519 kts | 136° |
| 2026-04-17 05:11 | 20.29609 | -73.64785 | 41015 ft | 520 kts | 136° |
| 2026-04-17 05:12 | 20.24031 | -73.59900 | 40999 ft | 519 kts | 136° |
| 2026-04-17 05:12 | 20.18464 | -73.55030 | 40802 ft | 517 kts | 136° |
| 2026-04-17 05:13 | 20.15688 | -73.52604 | 40142 ft | 517 kts | 136° |
| 2026-04-17 05:13 | 20.12903 | -73.50169 | 39362 ft | 519 kts | 136° |
| 2026-04-17 05:13 | 20.10104 | -73.47722 | 38599 ft | 522 kts | 135° |
| 2026-04-17 05:13 | 20.07330 | -73.45300 | 37749 ft | 524 kts | 136° |
| 2026-04-17 05:14 | 20.04512 | -73.42840 | 36931 ft | 524 kts | 136° |
| 2026-04-17 05:14 | 20.01690 | -73.40379 | 36138 ft | 525 kts | 136° |
| 2026-04-17 05:14 | 19.98868 | -73.37918 | 35369 ft | 524 kts | 136° |
| 2026-04-17 05:14 | 19.96053 | -73.35466 | 34632 ft | 524 kts | 137° |
| 2026-04-17 05:15 | 19.93238 | -73.33015 | 33945 ft | 522 kts | 137° |
| 2026-04-17 05:15 | 19.90447 | -73.30587 | 33026 ft | 513 kts | 137° |
| 2026-04-17 05:15 | 19.87694 | -73.28193 | 32010 ft | 509 kts | 137° |
| 2026-04-17 05:15 | 19.85028 | -73.25877 | 31325 ft | 493 kts | 137° |
| 2026-04-17 05:16 | 19.82408 | -73.23601 | 30736 ft | 484 kts | 137° |
| 2026-04-17 05:16 | 19.79812 | -73.21344 | 30136 ft | 483 kts | 137° |
| 2026-04-17 05:16 | 19.77213 | -73.19084 | 29460 ft | 481 kts | 137° |
| 2026-04-17 05:16 | 19.74630 | -73.16840 | 28823 ft | 478 kts | 137° |
| 2026-04-17 05:17 | 19.72064 | -73.14612 | 28223 ft | 475 kts | 138° |
| 2026-04-17 05:17 | 19.69519 | -73.12405 | 27614 ft | 472 kts | 138° |
| 2026-04-17 05:17 | 19.66987 | -73.10208 | 27011 ft | 469 kts | 138° |
| 2026-04-17 05:17 | 19.64501 | -73.08053 | 26407 ft | 466 kts | 138° |
| 2026-04-17 05:18 | 19.61997 | -73.05883 | 25804 ft | 463 kts | 138° |
| 2026-04-17 05:18 | 19.59511 | -73.03730 | 25245 ft | 459 kts | 139° |
| 2026-04-17 05:18 | 19.57049 | -73.01599 | 24718 ft | 455 kts | 139° |
| 2026-04-17 05:18 | 19.54612 | -72.99491 | 24181 ft | 450 kts | 139° |
| 2026-04-17 05:19 | 19.52195 | -72.97399 | 23665 ft | 446 kts | 139° |
| 2026-04-17 05:19 | 19.49811 | -72.95339 | 22895 ft | 435 kts | 139° |
| 2026-04-17 05:19 | 19.47471 | -72.93317 | 22048 ft | 433 kts | 139° |
| 2026-04-17 05:19 | 19.45154 | -72.91315 | 21469 ft | 428 kts | 139° |
| 2026-04-17 05:20 | 19.42890 | -72.89360 | 20922 ft | 423 kts | 139° |
| 2026-04-17 05:20 | 19.40619 | -72.87400 | 20342 ft | 419 kts | 139° |
| 2026-04-17 05:20 | 19.38374 | -72.85463 | 19784 ft | 415 kts | 139° |
| 2026-04-17 05:20 | 19.36148 | -72.83542 | 19228 ft | 410 kts | 139° |
| 2026-04-17 05:21 | 19.33945 | -72.81642 | 18701 ft | 406 kts | 138° |
| 2026-04-17 05:21 | 19.31765 | -72.79763 | 18146 ft | 402 kts | 138° |
| 2026-04-17 05:21 | 19.29619 | -72.77914 | 17384 ft | 391 kts | 138° |
| 2026-04-17 05:21 | 19.27554 | -72.76136 | 16695 ft | 374 kts | 138° |
| 2026-04-17 05:22 | 19.25588 | -72.74445 | 16155 ft | 355 kts | 138° |
| 2026-04-17 05:22 | 19.23736 | -72.72851 | 15665 ft | 343 kts | 138° |
| 2026-04-17 05:22 | 19.21893 | -72.71262 | 15188 ft | 343 kts | 139° |
| 2026-04-17 05:22 | 19.20043 | -72.69667 | 14681 ft | 343 kts | 139° |
| 2026-04-17 05:23 | 19.18201 | -72.68081 | 14201 ft | 341 kts | 139° |
| 2026-04-17 05:23 | 19.16362 | -72.66498 | 13708 ft | 340 kts | 139° |
| 2026-04-17 05:23 | 19.14532 | -72.64925 | 13190 ft | 337 kts | 139° |
| 2026-04-17 05:23 | 19.12722 | -72.63370 | 12703 ft | 334 kts | 139° |
| 2026-04-17 05:24 | 19.10922 | -72.61835 | 12225 ft | 331 kts | 140° |
| 2026-04-17 05:24 | 19.08942 | -72.60610 | 11687 ft | 332 kts | 158° |
| 2026-04-17 05:24 | 19.06710 | -72.60185 | 11206 ft | 331 kts | 178° |
| 2026-04-17 05:24 | 19.04432 | -72.60201 | 10933 ft | 321 kts | 180° |
| 2026-04-17 05:25 | 19.02249 | -72.60263 | 10809 ft | 307 kts | 180° |
| 2026-04-17 05:25 | 19.00154 | -72.60309 | 10673 ft | 295 kts | 180° |
| 2026-04-17 05:25 | 18.98133 | -72.60357 | 10431 ft | 288 kts | 180° |
| 2026-04-17 05:25 | 18.96146 | -72.60402 | 10104 ft | 285 kts | 180° |
| 2026-04-17 05:26 | 18.94172 | -72.60444 | 9784 ft | 286 kts | 180° |
| 2026-04-17 05:26 | 18.92148 | -72.60485 | 9470 ft | 293 kts | 180° |
| 2026-04-17 05:26 | 18.90131 | -72.60524 | 9117 ft | 293 kts | 180° |
| 2026-04-17 05:26 | 18.88100 | -72.60564 | 8768 ft | 292 kts | 180° |
| 2026-04-17 05:27 | 18.86078 | -72.60603 | 8440 ft | 290 kts | 180° |
| 2026-04-17 05:27 | 18.84066 | -72.60642 | 8130 ft | 288 kts | 180° |
| 2026-04-17 05:27 | 18.82070 | -72.60685 | 7816 ft | 287 kts | 180° |
| 2026-04-17 05:27 | 18.80077 | -72.60731 | 7508 ft | 285 kts | 180° |
| 2026-04-17 05:28 | 18.78101 | -72.60772 | 7194 ft | 284 kts | 180° |
| 2026-04-17 05:28 | 18.76130 | -72.60813 | 6883 ft | 282 kts | 180° |
| 2026-04-17 05:28 | 18.74196 | -72.60854 | 6571 ft | 281 kts | 180° |
| 2026-04-17 05:28 | 18.72245 | -72.60895 | 6270 ft | 280 kts | 180° |
| 2026-04-17 05:29 | 18.70310 | -72.60937 | 5952 ft | 278 kts | 180° |
| 2026-04-17 05:29 | 18.68381 | -72.60982 | 5644 ft | 276 kts | 180° |
| 2026-04-17 05:29 | 18.66462 | -72.61024 | 5337 ft | 275 kts | 180° |
| 2026-04-17 05:29 | 18.64554 | -72.61063 | 5037 ft | 273 kts | 180° |
| 2026-04-17 05:30 | 18.62673 | -72.60899 | 4731 ft | 271 kts | 165° |
| 2026-04-17 05:30 | 18.61081 | -72.59959 | 4566 ft | 257 kts | 135° |
| 2026-04-17 05:30 | 18.60112 | -72.58527 | 4474 ft | 232 kts | 118° |
| 2026-04-17 05:30 | 18.59408 | -72.57081 | 4362 ft | 211 kts | 116° |
| 2026-04-17 05:31 | 18.58786 | -72.55767 | 4270 ft | 190 kts | 116° |
| 2026-04-17 05:31 | 18.58222 | -72.54581 | 4209 ft | 175 kts | 117° |
| 2026-04-17 05:31 | 18.57678 | -72.53445 | 4131 ft | 174 kts | 117° |
| 2026-04-17 05:31 | 18.57193 | -72.52319 | 4054 ft | 162 kts | 107° |
| 2026-04-17 05:32 | 18.57021 | -72.51200 | 3852 ft | 149 kts | 94° |
| 2026-04-17 05:32 | 18.57008 | -72.50124 | 3668 ft | 146 kts | 89° |
| 2026-04-17 05:32 | 18.57026 | -72.49422 | 3524 ft | 144 kts | 88° |
| 2026-04-17 05:32 | 18.57065 | -72.48023 | 3282 ft | 144 kts | 87° |
| 2026-04-17 05:33 | 18.57117 | -72.46975 | 3100 ft | 143 kts | 86° |
| 2026-04-17 05:33 | 18.57169 | -72.45934 | 2907 ft | 141 kts | 87° |
| 2026-04-17 05:33 | 18.57219 | -72.44914 | 2727 ft | 138 kts | 87° |
| 2026-04-17 05:33 | 18.57268 | -72.43917 | 2524 ft | 136 kts | 87° |
| 2026-04-17 05:34 | 18.57301 | -72.43258 | 2408 ft | 136 kts | 87° |
| 2026-04-17 05:34 | 18.57350 | -72.42263 | 2231 ft | 136 kts | 87° |
| 2026-04-17 05:34 | 18.57400 | -72.41273 | 2040 ft | 135 kts | 87° |
| 2026-04-17 05:34 | 18.57449 | -72.40286 | 1858 ft | 135 kts | 87° |
| 2026-04-17 05:35 | 18.57515 | -72.38982 | 1632 ft | 134 kts | 87° |
| 2026-04-17 05:35 | 18.57564 | -72.38000 | 1453 ft | 134 kts | 87° |
| 2026-04-17 05:35 | 18.57613 | -72.37019 | 1275 ft | 134 kts | 87° |
| 2026-04-17 05:35 | 18.57646 | -72.36371 | 1151 ft | 134 kts | 87° |
| 2026-04-17 05:36 | 18.57694 | -72.35409 | 980 ft | 133 kts | 87° |
| 2026-04-17 05:36 | 18.57759 | -72.34115 | 748 ft | 132 kts | 87° |
| 2026-04-17 05:36 | 18.57791 | -72.33473 | 633 ft | 132 kts | 87° |
| 2026-04-17 05:36 | 18.57840 | -72.32503 | 458 ft | 133 kts | 87° |
| 2026-04-17 05:37 | 18.57907 | -72.31221 | 213 ft | 133 kts | 87° |
| 2026-04-17 05:37 | 18.57939 | -72.30571 | 101 ft | 131 kts | 88° |
| 2026-04-17 05:37 | 18.57986 | -72.29679 | 87 ft | 100 kts | 87° |
| 2026-04-17 05:37 | 18.58006 | -72.29250 | 90 ft | 25 kts | 87° |
| 2026-04-17 05:38 | 18.58014 | -72.29073 | 93 ft | 24 kts | 87° |
| 2026-04-17 05:38 | 18.58021 | -72.28903 | 94 ft | 23 kts | 87° |
| 2026-04-17 05:38 | 18.58029 | -72.28736 | 99 ft | 23 kts | 87° |
| 2026-04-17 05:38 | 18.58037 | -72.28586 | 101 ft | 20 kts | 86° |
| 2026-04-17 05:39 | 18.58051 | -72.28490 | 101 ft | 12 kts | 63° |
| 2026-04-17 05:39 | 18.58074 | -72.28430 | 102 ft | 2 kts | 115° |
| 2026-04-17 05:39 | 18.58059 | -72.28433 | 102 ft | 2 kts | 212° |
| 2026-04-17 05:39 | 18.58043 | -72.28499 | 101 ft | 17 kts | 267° |
| 2026-04-17 05:40 | 18.58037 | -72.28635 | 97 ft | 21 kts | 267° |
| 2026-04-17 05:40 | 18.58029 | -72.28797 | 96 ft | 24 kts | 267° |
| 2026-04-17 05:40 | 18.58020 | -72.28979 | 90 ft | 26 kts | 266° |
| 2026-04-17 05:40 | 18.58010 | -72.29181 | 88 ft | 29 kts | 267° |
| 2026-04-17 05:41 | 18.57999 | -72.29386 | 86 ft | 20 kts | 265° |
| 2026-04-17 05:41 | 18.57923 | -72.29461 | 87 ft | 16 kts | 188° |
| 2026-04-17 05:41 | 18.57815 | -72.29463 | 89 ft | 15 kts | 177° |
| 2026-04-17 05:41 | 18.57734 | -72.29468 | 89 ft | 4 kts | 206° |
| 2026-04-17 05:42 | 18.57687 | -72.29492 | 89 ft | 11 kts | 195° |
| 2026-04-17 05:42 | 18.57651 | -72.29496 | 90 ft | 4 kts | 182° |
| 2026-04-17 05:42 | 18.57644 | -72.29496 | 92 ft | 0 kts | 180° |
| 2026-04-17 05:42 | 18.57638 | -72.29497 | 89 ft | 2 kts | 187° |
| 2026-04-17 05:43 | 18.57636 | -72.29497 | 88 ft | 0 kts | 187° |